createdAt,value
2019-06-07T00:01:21.158Z,99652.56
2019-06-07T00:03:55.011Z,99643.82
2019-06-07T00:06:27.578Z,99635.45
2019-06-07T00:09:01.132Z,99627.50
2019-06-07T00:11:32.591Z,99623.66
2019-06-07T00:14:05.785Z,99606.34
2019-06-07T00:16:54.921Z,99597.47
2019-06-07T00:19:26.977Z,99597.39
2019-06-07T00:22:23.650Z,99592.06
2019-06-07T00:24:34.535Z,99582.36
2019-06-07T00:27:22.735Z,99585.52
2019-06-07T00:29:57.132Z,99585.48
2019-06-07T00:32:29.998Z,99571.37
2019-06-07T00:35:03.041Z,99553.08
2019-06-07T00:37:35.910Z,99560.66
2019-06-07T00:40:20.913Z,99549.69
2019-06-07T00:42:42.420Z,99543.84
2019-06-07T00:45:19.979Z,99521.80
2019-06-07T00:47:48.914Z,99521.80
2019-06-07T00:50:24.133Z,99499.16
2019-06-07T00:55:29.376Z,99482.94
2019-06-07T00:58:02.513Z,99465.67
2019-06-07T01:00:35.070Z,99462.64
2019-06-07T01:03:08.036Z,99449.83
2019-06-07T01:05:39.833Z,99438.43
2019-06-07T01:08:16.264Z,99430.45
2019-06-07T01:10:53.666Z,99430.45
2019-06-07T01:13:26.479Z,99409.70
2019-06-07T01:15:57.121Z,99410.16
2019-06-07T01:18:38.259Z,99401.67
2019-06-07T01:21:03.858Z,99406.58
2019-06-07T01:24:11.447Z,99399.05
2019-06-07T01:26:10.463Z,99411.07
2019-06-07T01:28:43.090Z,99401.01
2019-06-07T01:31:17.732Z,99396.76
2019-06-07T01:33:59.942Z,99389.31
2019-06-07T01:36:32.791Z,99378.30
2019-06-07T01:39:05.942Z,99361.46
2019-06-07T01:41:36.972Z,99349.53
2019-06-07T01:44:10.238Z,99335.40
2019-06-07T01:47:01.252Z,99329.66
2019-06-07T01:49:33.757Z,99339.05
2019-06-07T01:52:16.550Z,99324.05
2019-06-07T01:54:57.392Z,99315.13
2019-06-07T01:57:38.295Z,99294.42
2019-06-07T01:59:56.885Z,99303.69
2019-06-07T02:02:31.815Z,99273.53
2019-06-07T02:05:04.974Z,99273.48
2019-06-07T02:07:38.149Z,99246.48
2019-06-07T02:10:10.778Z,99252.67
2019-06-07T02:12:43.773Z,99258.45
2019-06-07T02:15:16.094Z,99274.81
2019-06-07T02:17:48.207Z,99277.02
2019-06-07T02:20:22.979Z,99267.63
2019-06-07T02:22:53.869Z,99252.59
2019-06-07T02:25:38.407Z,99239.75
2019-06-07T02:28:26.766Z,99231.31
2019-06-07T02:30:44.909Z,99222.47
2019-06-07T02:33:08.648Z,99217.98
2019-06-07T02:35:41.428Z,99211.73
2019-06-07T02:38:13.865Z,99197.53
2019-06-07T02:40:46.510Z,99181.52
2019-06-07T02:43:19.069Z,99173.50
2019-06-07T02:45:52.273Z,99171.34
2019-06-07T02:48:28.012Z,99171.34
2019-06-07T02:50:58.953Z,99164.23
2019-06-07T02:53:38.333Z,99164.23
2019-06-07T02:56:37.786Z,99164.19
2019-06-07T02:58:42.007Z,99164.19
2019-06-07T03:01:14.181Z,99158.81
2019-06-07T03:03:46.910Z,99187.05
2019-06-07T03:06:18.708Z,99196.72
2019-06-07T03:08:53.211Z,99206.49
2019-06-07T03:11:38.678Z,99217.19
2019-06-07T03:14:11.113Z,99221.78
2019-06-07T03:16:57.996Z,99218.10
2019-06-07T03:19:38.194Z,99259.11
2019-06-07T03:22:10.590Z,99209.11
2019-06-07T03:24:45.270Z,99199.94
2019-06-07T03:27:41.611Z,99198.25
2019-06-07T03:29:53.006Z,99227.15
2019-06-07T03:32:25.532Z,99184.59
2019-06-07T03:34:57.557Z,99173.54
2019-06-07T03:37:37.590Z,99163.32
2019-06-07T03:40:04.949Z,99157.13
2019-06-07T03:42:39.754Z,99134.10
2019-06-07T03:45:20.238Z,99152.27
2019-06-07T03:47:52.501Z,99168.23
2019-06-07T03:50:24.433Z,99165.66
2019-06-07T03:52:56.380Z,99148.02
2019-06-07T03:55:30.440Z,99140.08
2019-06-07T03:58:31.516Z,99146.27
2019-06-07T04:00:42.125Z,99156.49
2019-06-07T04:03:32.406Z,99154.30
2019-06-07T04:05:44.515Z,99168.14
2019-06-07T04:08:17.109Z,99173.96
2019-06-07T04:11:01.853Z,99178.95
2019-06-07T04:13:39.905Z,99189.19
2019-06-07T04:16:10.367Z,99233.60
2019-06-07T04:18:50.164Z,99205.29
2019-06-07T04:21:23.446Z,99150.45
2019-06-07T04:23:56.877Z,99146.45
2019-06-07T04:26:31.432Z,99146.91
2019-06-07T04:31:39.914Z,99157.63
2019-06-07T04:34:11.176Z,99172.23
2019-06-07T04:36:56.548Z,99181.98
2019-06-07T04:39:19.491Z,99193.53
2019-06-07T04:41:53.493Z,99199.72
2019-06-07T04:44:26.890Z,99179.79
2019-06-07T04:47:11.107Z,99204.16
2019-06-07T04:49:44.352Z,99231.14
2019-06-07T04:52:16.866Z,99255.53
2019-06-07T04:54:58.173Z,99251.58
2019-06-07T04:57:33.498Z,99253.78
2019-06-07T05:00:22.584Z,99245.36
2019-06-07T05:02:42.740Z,99251.52
2019-06-07T05:05:15.063Z,99256.83
2019-06-07T05:07:47.365Z,99249.80
2019-06-07T05:10:20.412Z,99239.59
2019-06-07T05:12:53.275Z,99251.97
2019-06-07T05:15:45.421Z,99259.06
2019-06-07T05:18:18.035Z,99253.72
2019-06-07T05:20:50.493Z,99251.55
2019-06-07T05:24:02.576Z,99259.13
2019-06-07T05:25:55.806Z,99222.78
2019-06-07T05:28:27.799Z,99217.02
2019-06-07T05:31:05.331Z,99222.75
2019-06-07T05:33:38.091Z,99202.78
2019-06-07T05:36:09.985Z,99196.98
2019-06-07T05:38:44.582Z,99214.66
2019-06-07T05:41:14.572Z,99225.71
2019-06-07T05:43:55.207Z,99227.50
2019-06-07T05:46:22.194Z,99224.84
2019-06-07T05:48:54.587Z,99233.27
2019-06-07T05:51:27.078Z,99235.05
2019-06-07T05:53:59.807Z,99242.98
2019-06-07T05:56:33.328Z,99243.81
2019-06-07T05:59:06.574Z,99240.74
2019-06-07T06:01:51.474Z,99246.06
2019-06-07T06:04:13.098Z,99238.58
2019-06-07T06:06:47.246Z,99235.05
2019-06-07T06:09:19.063Z,99237.70
2019-06-07T06:12:01.758Z,99243.85
2019-06-07T06:14:24.431Z,99234.55
2019-06-07T06:16:55.517Z,99246.89
2019-06-07T06:19:27.503Z,99249.97
2019-06-07T06:21:59.064Z,99250.00
2019-06-07T06:24:30.106Z,99243.74
2019-06-07T06:27:18.879Z,99250.72
2019-06-07T06:29:33.865Z,99260.98
2019-06-07T06:34:41.406Z,99243.81
2019-06-07T06:37:11.983Z,99254.52
2019-06-07T06:39:46.675Z,99243.47
2019-06-07T06:42:16.530Z,99232.39
2019-06-07T06:44:53.575Z,99250.57
2019-06-07T06:47:23.063Z,99226.27
2019-06-07T06:49:55.224Z,99216.67
2019-06-07T06:52:27.027Z,99216.17
2019-06-07T06:55:00.801Z,99224.64
2019-06-07T06:57:33.123Z,99224.59
2019-06-07T07:00:06.327Z,99228.42
2019-06-07T07:03:29.414Z,99239.96
2019-06-07T07:05:13.563Z,99240.09
2019-06-07T07:07:49.954Z,99226.25
2019-06-07T07:10:27.646Z,99224.98
2019-06-07T07:12:58.706Z,99227.67
2019-06-07T07:15:30.946Z,99233.41
2019-06-07T07:18:08.470Z,99221.89
2019-06-07T07:20:36.987Z,99214.80
2019-06-07T07:23:08.851Z,99208.44
2019-06-07T07:25:40.217Z,99203.20
2019-06-07T07:28:13.007Z,99226.61
2019-06-07T07:30:47.298Z,99201.31
2019-06-07T07:33:19.667Z,99173.05
2019-06-07T07:36:15.822Z,99178.44
2019-06-07T07:38:24.926Z,99182.42
2019-06-07T07:41:13.121Z,99218.27
2019-06-07T07:43:30.898Z,99224.55
2019-06-07T07:46:27.885Z,99178.48
2019-06-07T07:48:38.273Z,99157.14
2019-06-07T07:51:09.907Z,99170.70
2019-06-07T07:53:52.455Z,99162.92
2019-06-07T07:56:16.240Z,99151.83
2019-06-07T07:58:53.699Z,99136.05
2019-06-07T08:01:21.488Z,99127.15
2019-06-07T08:03:54.937Z,99128.39
2019-06-07T08:06:25.826Z,99135.84
2019-06-07T08:08:59.011Z,99106.80
2019-06-07T08:11:31.191Z,99112.53
2019-06-07T08:14:03.711Z,99066.98
2019-06-07T08:16:35.914Z,99066.58
2019-06-07T08:19:08.127Z,99058.06
2019-06-07T08:21:39.789Z,99057.59
2019-06-07T08:24:11.327Z,99057.59
2019-06-07T08:26:43.427Z,99067.38
2019-06-07T08:29:16.296Z,99041.83
2019-06-07T08:31:48.318Z,99044.65
2019-06-07T08:34:18.518Z,99039.22
2019-06-07T08:36:49.956Z,99030.50
2019-06-07T08:39:21.275Z,99027.39
2019-06-07T08:41:59.319Z,99037.62
2019-06-07T08:44:25.600Z,99031.64
2019-06-07T08:47:12.321Z,99042.69
2019-06-07T08:49:27.022Z,99029.19
2019-06-07T08:52:09.918Z,99004.74
2019-06-07T08:54:30.136Z,99003.80
2019-06-07T08:57:16.830Z,98997.59
2019-06-07T08:59:32.849Z,98987.87
2019-06-07T09:02:20.697Z,99008.80
2019-06-07T09:04:35.230Z,98987.31
2019-06-07T09:07:18.950Z,98971.25
2019-06-07T09:09:37.727Z,98977.65
2019-06-07T09:12:11.325Z,98978.46
2019-06-07T09:14:58.744Z,99018.75
2019-06-07T09:17:12.843Z,98971.62
2019-06-07T09:19:43.612Z,98963.00
2019-06-07T09:22:14.367Z,98974.16
2019-06-07T09:24:44.555Z,99004.63
2019-06-07T09:27:15.798Z,98945.94
2019-06-07T09:29:46.469Z,99010.97
2019-06-07T09:32:18.638Z,98947.88
2019-06-07T09:34:49.028Z,98933.14
2019-06-07T09:39:52.586Z,98925.23
2019-06-07T09:42:22.952Z,98920.84
2019-06-07T09:44:53.553Z,98931.12
2019-06-07T09:47:32.494Z,98921.15
2019-06-07T09:49:59.429Z,98911.97
2019-06-07T09:52:28.323Z,98895.16
2019-06-07T09:55:09.526Z,98887.28
2019-06-07T09:57:30.935Z,98856.93
2019-06-07T10:00:20.279Z,98890.18
2019-06-07T10:02:34.410Z,98846.09
2019-06-07T10:05:11.531Z,98855.28
2019-06-07T10:07:36.966Z,98846.09
2019-06-07T10:12:39.888Z,98840.91
2019-06-07T10:15:11.125Z,98825.09
2019-06-07T10:17:41.203Z,98825.11
2019-06-07T10:20:11.562Z,98813.77
2019-06-07T10:22:42.366Z,98818.89
2019-06-07T10:25:14.828Z,98802.20
2019-06-07T10:27:47.499Z,98786.48
2019-06-07T10:30:21.339Z,98790.69
2019-06-07T10:32:53.735Z,98766.11
2019-06-07T10:35:25.132Z,98778.88
2019-06-07T10:37:58.269Z,98787.45
2019-06-07T10:40:37.392Z,98786.20
2019-06-07T10:43:07.092Z,98740.03
2019-06-07T10:45:39.294Z,98727.14
2019-06-07T10:48:11.775Z,98781.81
2019-06-07T10:50:44.614Z,98750.31
2019-06-07T10:53:17.054Z,98725.73
2019-06-07T10:55:48.797Z,98746.31
2019-06-07T10:58:20.639Z,98707.18
2019-06-07T11:00:53.295Z,98696.18
2019-06-07T11:03:24.553Z,98715.55
2019-06-07T11:05:57.013Z,98699.27
2019-06-07T11:08:29.016Z,98695.27
2019-06-07T11:11:00.400Z,98692.13
2019-06-07T11:13:32.414Z,98692.13
2019-06-07T11:16:04.711Z,98694.95
2019-06-07T11:18:37.654Z,98699.66
2019-06-07T11:21:10.072Z,98734.95
2019-06-07T11:23:41.454Z,98715.91
2019-06-07T11:26:14.513Z,98652.89
2019-06-07T11:28:48.662Z,98689.19
2019-06-07T11:31:20.498Z,98636.02
2019-06-07T11:33:53.421Z,98642.56
2019-06-07T11:36:26.077Z,98626.47
2019-06-07T11:38:57.593Z,98600.70
2019-06-07T11:41:29.455Z,98625.45
2019-06-07T11:44:01.053Z,98616.54
2019-06-07T11:46:33.334Z,98600.61
2019-06-07T11:49:06.324Z,98575.12
2019-06-07T11:51:38.953Z,98584.24
2019-06-07T11:54:09.652Z,98593.41
2019-06-07T11:56:41.778Z,98559.00
2019-06-07T11:59:13.447Z,98545.51
2019-06-07T12:01:45.194Z,98559.09
2019-06-07T12:04:33.718Z,98534.11
2019-06-07T12:06:49.733Z,98523.05
2019-06-07T12:09:21.800Z,98513.53
2019-06-07T12:11:53.435Z,98537.27
2019-06-07T12:14:24.953Z,98498.50
2019-06-07T12:16:56.416Z,98510.56
2019-06-07T12:19:28.974Z,98495.81
2019-06-07T12:22:01.035Z,98473.48
2019-06-07T12:24:33.117Z,98488.30
2019-06-07T12:27:05.058Z,98479.23
2019-06-07T12:29:37.033Z,98471.11
2019-06-07T12:32:11.128Z,98492.69
2019-06-07T12:34:44.182Z,98501.15
2019-06-07T12:37:19.317Z,98499.42
2019-06-07T12:39:50.135Z,98512.19
2019-06-07T12:42:22.707Z,98517.96
2019-06-07T12:44:55.195Z,98532.02
2019-06-07T12:47:26.896Z,98553.42
2019-06-07T12:49:58.795Z,98570.09
2019-06-07T12:52:31.123Z,98577.27
2019-06-07T12:55:03.208Z,98596.30
2019-06-07T12:57:35.293Z,98614.67
2019-06-07T13:00:08.034Z,98645.66
2019-06-07T13:02:40.275Z,98662.09
2019-06-07T13:05:12.294Z,98691.48
2019-06-07T13:07:43.839Z,98733.31
2019-06-07T13:10:15.634Z,98769.64
2019-06-07T13:12:46.213Z,98815.64
2019-06-07T13:15:19.969Z,98840.66
2019-06-07T13:17:48.577Z,98889.17
2019-06-07T13:20:20.400Z,98922.23
2019-06-07T13:22:50.422Z,98942.28
2019-06-07T13:25:23.423Z,98972.95
2019-06-07T13:27:53.416Z,98988.96
2019-06-07T13:30:25.566Z,99000.77
2019-06-07T13:32:55.814Z,99010.59
2019-06-07T13:35:29.405Z,99041.88
2019-06-07T13:37:59.719Z,99040.49
2019-06-07T13:40:29.750Z,99061.97
2019-06-07T13:42:59.833Z,99069.25
2019-06-07T13:45:29.951Z,99081.62
2019-06-07T13:48:00.135Z,99091.45
2019-06-07T13:50:30.596Z,99095.22
2019-06-07T13:53:00.775Z,99124.16
2019-06-07T13:55:31.011Z,99133.47
2019-06-07T13:58:01.307Z,99139.08
2019-06-07T14:00:31.919Z,99148.16
2019-06-07T14:03:01.983Z,99152.11
2019-06-07T14:05:32.309Z,99159.47
2019-06-07T14:08:02.777Z,99171.99
2019-06-07T14:10:32.805Z,99186.72
2019-06-07T14:13:03.394Z,99207.09
2019-06-07T14:15:34.499Z,99222.09
2019-06-07T14:18:04.637Z,99226.47
2019-06-07T14:20:35.339Z,99233.05
2019-06-07T14:23:07.384Z,99240.31
2019-06-07T14:25:38.873Z,99247.91
2019-06-07T14:28:11.783Z,99270.86
2019-06-07T14:30:42.522Z,99278.69
2019-06-07T14:33:14.893Z,99291.56
2019-06-07T14:35:46.134Z,99293.02
2019-06-07T14:38:18.149Z,99331.00
2019-06-07T14:40:49.834Z,99342.31
2019-06-07T14:43:21.453Z,99343.24
2019-06-07T14:45:53.453Z,99360.34
2019-06-07T14:48:25.917Z,99368.63
2019-06-07T14:50:57.695Z,99382.94
2019-06-07T14:53:28.834Z,99371.16
2019-06-07T14:56:00.494Z,99394.73
2019-06-07T14:58:38.078Z,99397.25
2019-06-07T15:01:04.453Z,99405.55
2019-06-07T15:03:36.807Z,99408.80
2019-06-07T15:06:09.414Z,99419.57
2019-06-07T15:08:41.193Z,99427.22
2019-06-07T15:11:12.713Z,99425.36
2019-06-07T15:13:43.014Z,99439.72
2019-06-07T15:16:14.437Z,99448.95
2019-06-07T15:18:45.733Z,99468.64
2019-06-07T15:21:17.468Z,99483.01
2019-06-07T15:23:50.313Z,99500.49
2019-06-07T15:26:22.493Z,99510.53
2019-06-07T15:28:53.733Z,99525.28
2019-06-07T15:31:24.973Z,99528.69
2019-06-07T15:33:56.576Z,99535.48
2019-06-07T15:36:28.248Z,99542.65
2019-06-07T15:39:00.573Z,99549.64
2019-06-07T15:41:31.298Z,99559.29
2019-06-07T15:44:03.037Z,99554.66
2019-06-07T15:46:35.687Z,99564.45
2019-06-07T15:49:07.215Z,99572.41
2019-06-07T15:51:38.766Z,99576.34
2019-06-07T15:54:09.914Z,99586.05
2019-06-07T15:56:42.013Z,99561.09
2019-06-07T15:59:13.604Z,99604.66
2019-06-07T16:01:45.934Z,99584.66
2019-06-07T16:04:17.673Z,99612.16
2019-06-07T16:06:49.914Z,99622.87
2019-06-07T16:09:23.273Z,99641.11
2019-06-07T16:11:54.953Z,99639.83
2019-06-07T16:14:25.509Z,99671.89
2019-06-07T16:16:56.833Z,99673.64
2019-06-07T16:19:29.136Z,99672.30
2019-06-07T16:24:31.469Z,99694.43
2019-06-07T16:27:03.551Z,99717.13
2019-06-07T16:29:38.516Z,99703.26
2019-06-07T16:32:10.424Z,99743.22
2019-06-07T16:34:41.943Z,99717.58
2019-06-07T16:37:15.622Z,99717.58
2019-06-07T16:39:48.586Z,99738.56
2019-06-07T16:42:21.494Z,99740.84
2019-06-07T16:44:53.461Z,99761.81
2019-06-07T16:47:47.705Z,99781.02
2019-06-07T16:50:19.716Z,99768.12
2019-06-07T16:52:52.517Z,99795.67
2019-06-07T16:55:25.479Z,99825.46
2019-06-07T16:57:58.535Z,99792.19
2019-06-07T17:00:31.029Z,99834.41
2019-06-07T17:03:02.431Z,99842.47
2019-06-07T17:05:35.772Z,99848.73
2019-06-07T17:08:07.206Z,99874.35
2019-06-07T17:10:40.126Z,99869.95
2019-06-07T17:13:13.209Z,99876.59
2019-06-07T17:15:46.770Z,99892.15
2019-06-07T17:18:19.044Z,99889.01
2019-06-07T17:20:50.765Z,99902.34
2019-06-07T17:23:41.445Z,99922.69
2019-06-07T17:26:14.955Z,99921.80
2019-06-07T17:28:56.229Z,99925.33
2019-06-07T17:31:28.290Z,99932.05
2019-06-07T17:34:00.520Z,99958.27
2019-06-07T17:36:33.422Z,99958.27
2019-06-07T17:39:06.120Z,99970.66
2019-06-07T17:41:52.421Z,99981.34
2019-06-07T17:44:14.574Z,99979.59
2019-06-07T17:46:56.372Z,99988.91
2019-06-07T17:49:28.816Z,100014.63
2019-06-07T17:52:01.065Z,100023.98
2019-06-07T17:54:35.775Z,100011.55
2019-06-07T17:57:09.480Z,100033.80
2019-06-07T17:59:42.802Z,100025.81
2019-06-07T18:02:18.783Z,100041.32
2019-06-07T18:04:59.989Z,100049.31
2019-06-07T18:07:45.419Z,100055.53
2019-06-07T18:10:26.215Z,100062.20
2019-06-07T18:12:58.573Z,100067.52
2019-06-07T18:15:41.097Z,100087.05
2019-06-07T18:18:15.509Z,100085.27
2019-06-07T18:20:49.228Z,100103.42
2019-06-07T18:23:21.261Z,100110.13
2019-06-07T18:25:55.094Z,100114.94
2019-06-07T18:28:27.322Z,100120.31
2019-06-07T18:30:59.530Z,100104.34
2019-06-07T18:33:32.559Z,100121.65
2019-06-07T18:36:05.252Z,100150.55
2019-06-07T18:38:37.085Z,100160.73
2019-06-07T18:41:09.628Z,100164.73
2019-06-07T18:43:41.788Z,100185.16
2019-06-07T18:46:23.576Z,100191.84
2019-06-07T18:48:56.562Z,100196.68
2019-06-07T18:51:30.239Z,100205.61
2019-06-07T18:54:02.891Z,100224.66
2019-06-07T18:56:35.019Z,100237.09
2019-06-07T18:59:07.332Z,100255.77
2019-06-07T19:01:41.721Z,100241.12
2019-06-07T19:04:13.849Z,100240.22
2019-06-07T19:06:54.616Z,100265.53
2019-06-07T19:09:28.198Z,100269.53
2019-06-07T19:11:59.891Z,100275.72
2019-06-07T19:14:37.150Z,100291.70
2019-06-07T19:17:06.412Z,100290.39
2019-06-07T19:19:38.332Z,100295.27
2019-06-07T19:22:09.548Z,100310.34
2019-06-07T19:24:41.594Z,100304.59
2019-06-07T19:27:14.538Z,100317.91
2019-06-07T19:29:56.755Z,100328.55
2019-06-07T19:32:31.077Z,100328.11
2019-06-07T19:35:13.667Z,100335.23
2019-06-07T19:37:46.059Z,100352.52
2019-06-07T19:40:19.617Z,100348.96
2019-06-07T19:42:53.988Z,100361.39
2019-06-07T19:45:30.779Z,100357.81
2019-06-07T19:48:02.673Z,100369.80
2019-06-07T19:50:34.976Z,100384.05
2019-06-07T19:53:07.542Z,100393.34
2019-06-07T19:55:39.825Z,100402.63
2019-06-07T19:58:12.062Z,100408.82
2019-06-07T20:00:45.772Z,100422.09
2019-06-07T20:03:18.138Z,100414.55
2019-06-07T20:05:50.995Z,100433.22
2019-06-07T20:08:23.117Z,100431.42
2019-06-07T20:11:02.821Z,100450.46
2019-06-07T20:13:35.344Z,100455.39
2019-06-07T20:16:07.203Z,100463.30
2019-06-07T20:18:40.242Z,100474.34
2019-06-07T20:21:12.223Z,100477.92
2019-06-07T20:23:43.904Z,100481.97
2019-06-07T20:26:15.735Z,100491.28
2019-06-07T20:28:47.483Z,100494.37
2019-06-07T20:31:18.796Z,100502.42
2019-06-07T20:33:51.196Z,100513.05
2019-06-07T20:36:22.672Z,100517.06
2019-06-07T20:38:53.832Z,100517.45
2019-06-07T20:41:25.594Z,100531.59
2019-06-07T20:43:57.722Z,100533.79
2019-06-07T20:46:30.386Z,100544.89
2019-06-07T20:49:02.553Z,100547.09
2019-06-07T20:51:34.720Z,100550.62
2019-06-07T20:54:07.471Z,100561.76
2019-06-07T20:56:39.884Z,100573.22
2019-06-07T20:59:11.684Z,100570.13
2019-06-07T21:01:43.175Z,100571.39
2019-06-07T21:04:15.327Z,100569.59
2019-06-07T21:06:47.272Z,100575.69
2019-06-07T21:09:19.925Z,100572.14
2019-06-07T21:11:51.263Z,100587.22
2019-06-07T21:14:22.783Z,100581.00
2019-06-07T21:16:55.089Z,100593.47
2019-06-07T21:19:27.044Z,100603.74
2019-06-07T21:21:58.863Z,100605.59
2019-06-07T21:24:30.386Z,100616.10
2019-06-07T21:27:03.494Z,100617.48
2019-06-07T21:29:36.783Z,100632.06
2019-06-07T21:32:09.609Z,100631.16
2019-06-07T21:34:41.449Z,100642.98
2019-06-07T21:37:14.083Z,100646.92
2019-06-07T21:39:49.914Z,100645.62
2019-06-07T21:42:20.793Z,100640.30
2019-06-07T21:44:52.544Z,100636.28
2019-06-07T21:47:24.112Z,100649.11
2019-06-07T21:49:55.672Z,100648.60
2019-06-07T21:52:27.864Z,100657.41
2019-06-07T21:55:02.702Z,100662.41
2019-06-07T21:57:34.447Z,100664.52
2019-06-07T22:00:07.404Z,100658.00
2019-06-07T22:02:40.352Z,100670.73
2019-06-07T22:05:11.918Z,100675.09
2019-06-07T22:07:43.568Z,100676.42
2019-06-07T22:10:15.617Z,100683.13
2019-06-07T22:12:47.005Z,100695.45
2019-06-07T22:15:32.084Z,100687.06
2019-06-07T22:17:53.436Z,100690.95
2019-06-07T22:20:26.145Z,100694.19
2019-06-07T22:22:57.832Z,100700.56
2019-06-07T22:25:29.438Z,100701.23
2019-06-07T22:28:01.032Z,100712.73
2019-06-07T22:30:33.824Z,100722.55
2019-06-07T22:33:06.851Z,100719.85
2019-06-07T22:35:38.603Z,100723.36
2019-06-07T22:38:12.149Z,100720.05
2019-06-07T22:40:43.586Z,100726.62
2019-06-07T22:43:16.050Z,100731.94
2019-06-07T22:45:47.505Z,100729.76
2019-06-07T22:48:19.444Z,100731.02
2019-06-07T22:50:51.728Z,100742.48
2019-06-07T22:53:22.564Z,100744.89
2019-06-07T22:56:00.945Z,100749.88
2019-06-07T22:58:32.723Z,100753.59
2019-06-07T23:01:04.164Z,100760.84
2019-06-07T23:03:36.563Z,100771.80
2019-06-07T23:06:08.471Z,100767.25
2019-06-07T23:08:40.064Z,100771.35
2019-06-07T23:11:11.137Z,100776.02
2019-06-07T23:13:42.983Z,100784.61
2019-06-07T23:16:15.765Z,100777.38
2019-06-07T23:18:48.884Z,100788.10
2019-06-07T23:21:20.620Z,100788.98
2019-06-07T23:23:52.865Z,100795.43
2019-06-07T23:26:23.603Z,100799.98
2019-06-07T23:28:56.604Z,100798.43
2019-06-07T23:31:28.304Z,100815.35
2019-06-07T23:34:00.289Z,100816.97
2019-06-07T23:36:33.112Z,100817.50
2019-06-07T23:39:06.224Z,100824.59
2019-06-07T23:41:39.384Z,100818.30
2019-06-07T23:44:11.106Z,100824.27
2019-06-07T23:46:42.963Z,100830.35
2019-06-07T23:49:15.532Z,100834.34
2019-06-07T23:51:46.695Z,100842.92
2019-06-07T23:54:17.878Z,100840.17
2019-06-07T23:56:49.404Z,100836.95
2019-06-07T23:59:22.444Z,100845.89
